Time;durP1;ratioP1;P1;durP2;ratioP2;P2;SDS_P1;SDS_P2;PMS_P1;PMS_P2;Temp;Humidity;BMP_temperature;BMP_pressure;BME280_temperature;BME280_humidity;BME280_pressure;Samples;Min_cycle;Max_cycle;Signal;HPM_P1;HPM_P2
2023/12/11 00:00:12;;;;;;;4.80;2.17;;;;;;;10.13;90.96;98692.97;5014379;28;20231;-81
2023/12/11 00:02:39;;;;;;;5.90;2.43;;;;;;;10.19;90.94;98690.97;5011805;28;20202;-81
2023/12/11 00:05:05;;;;;;;6.37;2.67;;;;;;;10.25;90.26;98696.78;5014384;28;20211;-82
2023/12/11 00:07:33;;;;;;;3.80;2.17;;;;;;;10.21;89.43;98713.47;5012193;28;20779;-81
2023/12/11 00:09:59;;;;;;;6.53;2.73;;;;;;;10.04;89.13;98734.22;5013744;28;20261;-80
2023/12/11 00:12:26;;;;;;;6.30;3.03;;;;;;;10.32;89.19;98726.03;5010622;28;20207;-81
2023/12/11 00:14:52;;;;;;;5.60;2.53;;;;;;;10.29;88.50;98734.00;5011973;28;20667;-80
2023/12/11 00:17:18;;;;;;;6.60;2.80;;;;;;;10.26;88.62;98755.81;5016397;28;20765;-81
2023/12/11 00:19:45;;;;;;;6.80;3.03;;;;;;;10.31;89.29;98755.66;5015326;28;20226;-80
2023/12/11 00:22:11;;;;;;;7.63;3.20;;;;;;;10.39;89.24;98739.66;5013499;28;20211;-80
2023/12/11 00:24:38;;;;;;;5.47;2.70;;;;;;;10.43;89.07;98757.72;5016176;28;20257;-80
2023/12/11 00:27:05;;;;;;;6.47;2.63;;;;;;;10.38;89.42;98740.56;5016573;28;20235;-81
2023/12/11 00:29:32;;;;;;;8.27;3.07;;;;;;;10.45;89.16;98742.84;5016647;28;20281;-80
2023/12/11 00:31:58;;;;;;;5.00;2.37;;;;;;;10.33;89.12;98738.19;5015165;28;20207;-79
2023/12/11 00:34:24;;;;;;;6.20;2.63;;;;;;;10.47;88.66;98750.59;5017246;28;20202;-80
2023/12/11 00:36:51;;;;;;;10.17;3.53;;;;;;;10.47;88.32;98755.81;5010465;28;20195;-79
2023/12/11 00:39:17;;;;;;;7.47;2.90;;;;;;;10.44;88.44;98756.78;5014866;28;20733;-81
2023/12/11 00:41:45;;;;;;;11.20;3.53;;;;;;;10.38;88.25;98766.66;5014860;28;20198;-82
2023/12/11 00:44:11;;;;;;;8.87;2.70;;;;;;;10.42;87.12;98773.41;5014354;28;20292;-81
2023/12/11 00:46:37;;;;;;;6.83;2.87;;;;;;;10.57;87.84;98777.13;5016807;28;20206;-81
2023/12/11 00:49:04;;;;;;;7.27;2.90;;;;;;;10.40;88.12;98790.91;5019971;28;20558;-80
2023/12/11 00:51:30;;;;;;;6.23;2.90;;;;;;;10.36;88.81;98781.53;5016896;28;20211;-81
2023/12/11 00:53:56;;;;;;;11.80;3.30;;;;;;;10.46;88.35;98767.16;5017991;28;20233;-79
2023/12/11 00:56:23;;;;;;;10.93;3.37;;;;;;;10.29;88.22;98765.28;5022661;28;20661;-80
2023/12/11 00:58:50;;;;;;;5.97;3.20;;;;;;;10.39;87.97;98784.00;5017893;28;20198;-81
2023/12/11 01:01:17;;;;;;;8.77;3.40;;;;;;;10.33;88.01;98785.13;5014300;28;20203;-80
2023/12/11 01:03:46;;;;;;;7.70;2.60;;;;;;;10.24;87.96;98783.72;5015588;28;20203;-80
2023/12/11 01:06:13;;;;;;;14.47;3.77;;;;;;;10.28;88.99;98784.44;5014893;28;20748;-80
2023/12/11 01:08:40;;;;;;;7.80;3.00;;;;;;;10.24;89.35;98769.84;5015974;28;20227;-80
2023/12/11 01:11:06;;;;;;;10.10;2.73;;;;;;;10.16;90.20;98754.53;5014886;28;20281;-80
2023/12/11 01:13:33;;;;;;;5.57;2.67;;;;;;;10.25;89.86;98755.91;5012323;28;20213;-81
2023/12/11 01:16:01;;;;;;;9.67;3.40;;;;;;;10.14;89.18;98753.75;5013913;28;20210;-81
2023/12/11 01:18:27;;;;;;;7.80;2.70;;;;;;;10.18;89.79;98752.72;5015361;28;20203;-80
2023/12/11 01:20:54;;;;;;;4.47;2.50;;;;;;;10.03;89.50;98761.19;5014944;28;20223;-81
2023/12/11 01:23:20;;;;;;;8.07;3.20;;;;;;;10.16;89.72;98757.16;5015811;28;20206;-80
2023/12/11 01:25:47;;;;;;;9.67;3.40;;;;;;;10.33;89.50;98759.88;5018470;28;20663;-79
2023/12/11 01:28:13;;;;;;;7.93;3.53;;;;;;;10.09;89.19;98776.59;5008519;28;20223;-81
2023/12/11 01:30:39;;;;;;;7.90;2.73;;;;;;;10.24;89.37;98765.47;5014661;28;20226;-80
2023/12/11 01:33:07;;;;;;;8.97;3.17;;;;;;;10.28;88.89;98787.03;5016722;28;20206;-79
2023/12/11 01:35:34;;;;;;;9.20;3.77;;;;;;;10.24;88.88;98785.50;5013960;28;20589;-80
2023/12/11 01:38:01;;;;;;;7.37;3.40;;;;;;;10.25;88.60;98792.41;5014293;28;20211;-80
2023/12/11 01:40:27;;;;;;;6.07;2.67;;;;;;;10.38;88.29;98796.19;5014607;28;20282;-80
2023/12/11 01:42:53;;;;;;;12.50;3.43;;;;;;;10.29;88.27;98801.78;5014951;28;20578;-81
2023/12/11 01:45:20;;;;;;;12.03;3.30;;;;;;;10.34;88.23;98799.84;5020538;28;20199;-80
2023/12/11 01:47:46;;;;;;;7.27;2.90;;;;;;;10.39;87.81;98812.69;5013114;28;20222;-79
2023/12/11 01:50:14;;;;;;;10.80;3.27;;;;;;;10.40;87.63;98824.81;5013229;28;20230;-80
2023/12/11 01:52:40;;;;;;;6.73;2.83;;;;;;;10.29;87.77;98833.94;5017795;28;20345;-79
2023/12/11 01:55:08;;;;;;;9.47;3.00;;;;;;;10.20;88.18;98839.53;5016655;28;20207;-78
2023/12/11 01:57:35;;;;;;;10.57;3.27;;;;;;;10.41;87.09;98857.81;5020124;28;20231;-81
2023/12/11 02:00:04;;;;;;;10.00;3.20;;;;;;;10.37;86.41;98883.19;5020373;28;20230;-80
2023/12/11 02:02:31;;;;;;;9.57;3.30;;;;;;;10.38;85.97;98892.69;5015721;28;20198;-80
2023/12/11 02:04:58;;;;;;;10.40;3.00;;;;;;;10.38;86.45;98889.25;5016784;28;20747;-80
2023/12/11 02:07:28;;;;;;;8.57;2.63;;;;;;;10.36;85.71;98907.56;5013801;28;20226;-79
2023/12/11 02:09:55;;;;;;;10.37;3.47;;;;;;;10.40;85.55;98918.72;5015755;28;20313;-80
2023/12/11 02:12:21;;;;;;;11.80;3.43;;;;;;;10.36;85.22;98928.44;5014842;28;20206;-79
2023/12/11 02:14:47;;;;;;;10.07;3.50;;;;;;;10.39;85.37;98925.69;5015289;28;20214;-81
2023/12/11 02:17:14;;;;;;;10.73;3.73;;;;;;;10.28;85.38;98920.06;5015213;28;20253;-81
2023/12/11 02:19:40;;;;;;;12.20;3.63;;;;;;;10.34;85.59;98918.06;5017548;28;20223;-80
2023/12/11 02:22:06;;;;;;;16.23;3.60;;;;;;;10.36;85.61;98923.22;5017017;28;20218;-80
2023/12/11 02:24:40;;;;;;;16.27;3.77;;;;;;;10.30;85.98;98929.53;5020045;28;20218;-82
2023/12/11 02:27:08;;;;;;;13.93;4.53;;;;;;;10.38;85.68;98934.41;5021278;28;20277;-81
2023/12/11 02:29:34;;;;;;;8.97;3.50;;;;;;;10.21;86.42;98921.22;5021047;28;20230;-82
2023/12/11 02:32:01;;;;;;;14.70;3.83;;;;;;;10.13;86.38;98918.94;5022114;28;20202;-81
2023/12/11 02:34:27;;;;;;;12.43;3.27;;;;;;;10.26;85.47;98921.88;5022012;28;20238;-81
2023/12/11 02:36:53;;;;;;;15.30;3.63;;;;;;;10.29;85.04;98933.03;5021814;28;20207;-81
2023/12/11 02:39:20;;;;;;;14.30;4.50;;;;;;;10.28;85.27;98948.72;5030267;23;20231;-78
2023/12/11 02:41:46;;;;;;;13.73;4.70;;;;;;;10.43;85.43;98929.88;5003938;28;20203;-78
2023/12/11 02:44:14;;;;;;;16.30;4.77;;;;;;;10.31;85.90;98933.84;5012694;28;20689;-78
2023/12/11 02:46:40;;;;;;;8.70;4.73;;;;;;;10.28;86.56;98918.28;5013140;28;20257;-78
2023/12/11 02:49:06;;;;;;;12.07;4.67;;;;;;;10.35;86.79;98903.28;5013257;28;20242;-78
2023/12/11 02:51:33;;;;;;;16.13;5.27;;;;;;;10.28;87.00;98894.81;5012538;28;20211;-78
2023/12/11 02:53:59;;;;;;;15.43;4.60;;;;;;;10.17;87.53;98883.13;5013469;28;20203;-78
2023/12/11 02:56:25;;;;;;;12.67;4.87;;;;;;;10.27;87.14;98882.69;5002753;28;20207;-78
2023/12/11 02:58:52;;;;;;;10.37;5.00;;;;;;;10.21;87.30;98879.47;4988176;28;20196;-78
2023/12/11 03:01:20;;;;;;;11.30;5.27;;;;;;;10.13;87.65;98869.41;4994157;28;20212;-78
2023/12/11 03:03:46;;;;;;;11.33;4.50;;;;;;;10.06;87.57;98860.97;4997952;28;20219;-78
2023/12/11 03:06:17;;;;;;;14.33;5.20;;;;;;;10.13;87.41;98861.59;5012570;28;20655;-78
2023/12/11 03:08:44;;;;;;;13.97;5.10;;;;;;;10.24;86.81;98861.97;5013608;28;20709;-78
2023/12/11 03:11:10;;;;;;;13.30;4.63;;;;;;;10.39;86.66;98872.69;5012863;28;20775;-78
2023/12/11 03:13:37;;;;;;;15.27;6.93;;;;;;;10.37;86.13;98872.75;5012890;28;20229;-77
2023/12/11 03:16:03;;;;;;;12.23;6.07;;;;;;;10.26;85.46;98891.41;5013272;28;20211;-78
2023/12/11 03:18:31;;;;;;;12.33;5.07;;;;;;;10.27;85.71;98897.50;5012913;28;20294;-77
2023/12/11 03:20:57;;;;;;;11.63;5.57;;;;;;;10.24;85.80;98901.06;5012600;28;20852;-78
2023/12/11 03:23:24;;;;;;;18.53;5.33;;;;;;;10.41;85.35;98896.94;5011709;28;20744;-77
2023/12/11 03:25:50;;;;;;;13.73;5.27;;;;;;;10.14;85.21;98929.28;5013102;28;20202;-78
2023/12/11 03:28:16;;;;;;;10.63;5.10;;;;;;;10.33;85.21;98903.34;5012681;28;20257;-77
2023/12/11 03:30:43;;;;;;;12.07;5.00;;;;;;;10.18;84.38;98923.97;5001874;28;20223;-78
2023/12/11 03:33:09;;;;;;;15.33;5.53;;;;;;;10.23;84.37;98933.28;5004232;28;20256;-78
2023/12/11 03:35:37;;;;;;;17.27;5.80;;;;;;;10.31;84.69;98917.34;5012630;28;20237;-77
2023/12/11 03:38:03;;;;;;;10.30;5.40;;;;;;;10.36;83.77;98944.06;5012488;28;20202;-78
2023/12/11 03:40:29;;;;;;;16.23;6.83;;;;;;;10.27;84.39;98942.69;5012976;28;20265;-78
2023/12/11 03:42:56;;;;;;;17.67;5.37;;;;;;;10.45;84.13;98929.81;5012719;28;20203;-78
2023/12/11 03:45:22;;;;;;;11.17;4.57;;;;;;;10.21;83.24;98955.97;5013344;28;20214;-79
2023/12/11 03:47:48;;;;;;;12.83;4.93;;;;;;;10.35;83.41;98955.44;5013191;28;20230;-78
2023/12/11 03:50:15;;;;;;;16.87;5.80;;;;;;;10.39;84.04;98940.50;5015551;28;20223;-78
2023/12/11 03:52:43;;;;;;;18.57;5.40;;;;;;;10.25;83.63;98949.72;5016167;28;20260;-77
2023/12/11 03:55:09;;;;;;;18.93;6.57;;;;;;;10.28;82.89;98954.78;5016725;28;20211;-78
2023/12/11 03:57:35;;;;;;;16.73;5.00;;;;;;;10.34;83.77;98961.56;5016412;28;20239;-78
2023/12/11 04:00:02;;;;;;;17.73;5.07;;;;;;;10.24;84.63;98950.63;5002881;28;20277;-78
2023/12/11 04:02:28;;;;;;;14.33;5.13;;;;;;;10.43;83.39;98958.56;4997453;28;20210;-78
2023/12/11 04:04:54;;;;;;;16.20;5.23;;;;;;;10.48;83.19;98968.78;5016466;28;20199;-78
2023/12/11 04:07:21;;;;;;;16.43;6.40;;;;;;;10.52;83.28;98962.53;5015613;28;20210;-78
2023/12/11 04:09:49;;;;;;;15.50;5.67;;;;;;;10.37;83.39;98979.69;5016940;28;20226;-78
2023/12/11 04:12:15;;;;;;;16.27;5.67;;;;;;;10.59;83.30;98968.34;5016733;28;20202;-79
2023/12/11 04:14:41;;;;;;;16.87;5.03;;;;;;;10.57;82.85;98978.00;5017182;28;20257;-79
2023/12/11 04:17:08;;;;;;;14.57;5.97;;;;;;;10.30;83.74;98960.81;5017247;28;20207;-79
2023/12/11 04:19:34;;;;;;;18.20;5.50;;;;;;;10.55;83.27;98965.03;5017110;28;20234;-78
2023/12/11 04:22:00;;;;;;;20.90;6.20;;;;;;;10.78;82.71;98971.84;5017327;28;20205;-79
2023/12/11 04:24:27;;;;;;;14.23;4.90;;;;;;;10.93;81.99;98979.00;5017592;28;20690;-79
2023/12/11 04:26:54;;;;;;;12.60;5.33;;;;;;;10.91;81.18;98998.28;5017893;28;20393;-79
2023/12/11 04:29:21;;;;;;;15.17;4.30;;;;;;;10.57;81.04;99032.81;5009285;28;20786;-78
2023/12/11 04:31:47;;;;;;;11.90;3.87;;;;;;;10.45;81.29;99027.19;5000026;28;20215;-78
2023/12/11 04:34:13;;;;;;;17.60;6.17;;;;;;;10.36;82.49;98998.84;5016674;28;20214;-79
2023/12/11 04:36:42;;;;;;;18.70;5.27;;;;;;;10.34;83.57;98971.97;5016250;28;20665;-78
2023/12/11 04:39:08;;;;;;;18.17;6.03;;;;;;;10.37;83.91;98958.81;5017477;28;20225;-79
2023/12/11 04:41:34;;;;;;;12.00;4.27;;;;;;;10.14;84.35;98936.28;5016888;28;20229;-79
2023/12/11 04:44:02;;;;;;;17.83;4.93;;;;;;;10.31;84.60;98914.75;5017223;28;20203;-79
2023/12/11 04:46:29;;;;;;;19.20;5.17;;;;;;;10.29;84.52;98919.16;5017133;28;20221;-79
2023/12/11 04:48:55;;;;;;;16.97;4.13;;;;;;;10.11;84.31;98924.22;5017094;28;20223;-79
2023/12/11 04:51:21;;;;;;;9.07;3.20;;;;;;;9.96;85.96;98898.78;5016148;28;20237;-78
2023/12/11 04:53:48;;;;;;;10.07;3.37;;;;;;;10.01;87.94;98838.63;5015657;28;20436;-78
2023/12/11 04:56:14;;;;;;;9.27;4.00;;;;;;;9.18;88.82;98808.16;5015585;28;20700;-77
2023/12/11 04:58:40;;;;;;;15.50;3.40;;;;;;;9.17;92.17;98749.19;5013286;28;20207;-78
2023/12/11 05:01:08;;;;;;;10.07;3.03;;;;;;;9.28;93.52;98700.16;4994497;28;20281;-78
2023/12/11 05:03:34;;;;;;;13.80;3.67;;;;;;;9.30;93.48;98685.31;5012674;28;20269;-78
2023/12/11 05:06:01;;;;;;;12.67;3.70;;;;;;;9.14;94.25;98661.69;5015129;28;20204;-78
2023/12/11 05:08:27;;;;;;;10.00;2.57;;;;;;;9.33;95.25;98630.47;5016234;28;20242;-78
2023/12/11 05:10:54;;;;;;;9.07;3.60;;;;;;;9.48;94.10;98624.63;5016285;28;20256;-78
2023/12/11 05:13:20;;;;;;;11.53;3.57;;;;;;;9.53;94.12;98629.63;5015893;28;20207;-79
2023/12/11 05:15:46;;;;;;;16.17;4.23;;;;;;;9.51;94.90;98629.72;5019050;28;20206;-77
2023/12/11 05:18:14;;;;;;;10.43;3.70;;;;;;;9.65;94.74;98597.84;5020000;28;20211;-78
2023/12/11 05:20:41;;;;;;;12.87;4.53;;;;;;;9.67;94.90;98610.78;5019949;28;20235;-78
2023/12/11 05:23:07;;;;;;;12.70;3.83;;;;;;;9.56;94.97;98618.25;5018606;28;20210;-78
2023/12/11 05:25:33;;;;;;;12.53;3.73;;;;;;;9.54;94.74;98619.13;5018085;28;20241;-78
2023/12/11 05:28:00;;;;;;;14.47;3.10;;;;;;;9.64;94.78;98605.72;5017604;28;20213;-78
2023/12/11 05:30:26;;;;;;;11.03;3.53;;;;;;;9.96;92.84;98616.44;5001276;28;20294;-78
2023/12/11 05:32:52;;;;;;;16.57;3.67;;;;;;;9.94;93.02;98621.72;5009862;28;20210;-77
2023/12/11 05:35:20;;;;;;;9.97;3.87;;;;;;;9.69;92.16;98642.81;5015826;28;20264;-78
2023/12/11 05:37:46;;;;;;;14.10;4.53;;;;;;;10.12;91.06;98644.31;5014285;28;20230;-79
2023/12/11 05:40:13;;;;;;;17.60;4.13;;;;;;;10.02;91.05;98669.13;5015170;28;20231;-79
2023/12/11 05:42:40;;;;;;;13.03;2.63;;;;;;;10.23;91.51;98651.66;5014832;28;20341;-79
2023/12/11 05:45:08;;;;;;;13.37;3.17;;;;;;;10.29;91.41;98658.38;5014869;28;20255;-79
2023/12/11 05:47:34;;;;;;;14.83;4.33;;;;;;;10.37;91.03;98665.88;5015224;28;20554;-79
2023/12/11 05:50:01;;;;;;;10.20;3.47;;;;;;;10.31;91.32;98662.63;5015296;28;20662;-79
2023/12/11 05:52:28;;;;;;;14.33;3.93;;;;;;;10.40;90.44;98670.94;5014535;28;20701;-79
2023/12/11 05:54:55;;;;;;;18.20;3.30;;;;;;;10.37;90.50;98677.13;5015471;28;20560;-78
2023/12/11 05:57:21;;;;;;;18.43;4.07;;;;;;;10.30;90.04;98693.97;5015397;28;20739;-78
2023/12/11 05:59:48;;;;;;;15.53;3.80;;;;;;;10.06;89.73;98709.78;5002602;28;20234;-78
2023/12/11 06:02:14;;;;;;;11.97;3.03;;;;;;;10.14;89.67;98715.50;5000585;28;20202;-78
2023/12/11 06:04:41;;;;;;;18.03;3.87;;;;;;;10.13;89.83;98703.38;5014704;28;20211;-78
2023/12/11 06:07:07;;;;;;;11.13;3.57;;;;;;;10.13;88.84;98729.47;5013740;28;20210;-78
2023/12/11 06:09:35;;;;;;;13.97;2.80;;;;;;;10.03;89.05;98722.09;5013887;28;20277;-79
2023/12/11 06:12:01;;;;;;;10.43;3.67;;;;;;;10.16;89.43;98712.81;4998046;28;20261;-79
2023/12/11 06:14:27;;;;;;;13.60;3.13;;;;;;;10.18;89.80;98708.38;5014284;28;20215;-78
2023/12/11 06:16:54;;;;;;;21.50;4.53;;;;;;;10.18;90.16;98694.50;5013819;28;20215;-78
2023/12/11 06:19:20;;;;;;;15.40;3.90;;;;;;;10.09;89.92;98701.00;5014555;28;20225;-78
2023/12/11 06:21:46;;;;;;;19.53;4.80;;;;;;;10.09;89.62;98706.22;5012951;28;20203;-78
2023/12/11 06:24:13;;;;;;;19.27;3.83;;;;;;;10.17;88.85;98709.31;5014256;28;20684;-78
2023/12/11 06:26:42;;;;;;;18.17;3.10;;;;;;;10.25;89.48;98708.97;5014091;28;20273;-78
2023/12/11 06:29:08;;;;;;;16.07;3.43;;;;;;;10.32;88.97;98707.78;5007606;28;20312;-78
2023/12/11 06:31:35;;;;;;;17.30;3.93;;;;;;;9.91;89.02;98732.16;4994635;28;20246;-79
2023/12/11 06:34:01;;;;;;;17.50;3.60;;;;;;;10.14;89.19;98705.06;4998434;28;20203;-78
2023/12/11 06:36:28;;;;;;;15.20;3.43;;;;;;;10.02;89.70;98716.03;5013633;28;20262;-78
2023/12/11 06:38:55;;;;;;;12.53;3.80;;;;;;;10.13;89.70;98702.56;5014098;28;20253;-78
2023/12/11 06:41:21;;;;;;;13.80;3.00;;;;;;;10.22;89.01;98720.38;5013184;28;20249;-78
2023/12/11 06:43:53;;;;;;;16.90;2.77;;;;;;;10.12;89.47;98719.09;5012912;28;20203;-78
2023/12/11 06:46:20;;;;;;;18.13;2.93;;;;;;;10.05;89.67;98715.91;5013377;28;20213;-78
2023/12/11 06:48:46;;;;;;;11.93;3.80;;;;;;;10.18;89.70;98700.56;5013690;28;20230;-78
2023/12/11 06:51:15;;;;;;;20.30;3.00;;;;;;;9.93;91.35;98682.59;5013100;28;20226;-79
2023/12/11 06:53:41;;;;;;;13.50;3.17;;;;;;;10.01;93.77;98627.47;5013671;28;20211;-79
2023/12/11 06:56:08;;;;;;;12.97;2.73;;;;;;;10.04;93.60;98607.34;5013415;28;20211;-78
2023/12/11 06:58:35;;;;;;;12.30;2.57;;;;;;;9.99;93.66;98606.72;5012090;28;20210;-78
2023/12/11 07:01:03;;;;;;;11.83;2.90;;;;;;;9.97;94.19;98599.88;4993211;28;20285;-78
2023/12/11 07:03:29;;;;;;;11.57;2.93;;;;;;;10.04;93.83;98596.06;5008745;28;20221;-78
2023/12/11 07:05:56;;;;;;;12.00;3.03;;;;;;;10.03;93.42;98602.19;5013061;28;20207;-79
2023/12/11 07:08:22;;;;;;;7.33;2.40;;;;;;;10.02;93.17;98601.34;5013005;28;20206;-78
2023/12/11 07:10:48;;;;;;;12.97;2.97;;;;;;;9.92;94.21;98592.28;5012691;28;20602;-78
2023/12/11 07:13:15;;;;;;;12.80;3.07;;;;;;;10.00;93.97;98600.56;5012979;28;20669;-78
2023/12/11 07:15:41;;;;;;;13.30;2.80;;;;;;;10.24;92.48;98614.22;5013116;28;20214;-78
2023/12/11 07:18:11;;;;;;;15.37;3.27;;;;;;;10.29;91.88;98633.13;5013213;28;20211;-79
2023/12/11 07:20:38;;;;;;;13.17;3.33;;;;;;;10.06;92.57;98639.41;5012832;28;20249;-78
2023/12/11 07:23:05;;;;;;;10.97;2.70;;;;;;;10.12;93.12;98638.28;5012272;28;20199;-78
2023/12/11 07:25:32;;;;;;;15.43;3.00;;;;;;;10.05;93.73;98624.69;5015965;28;20210;-78
2023/12/11 07:27:58;;;;;;;12.20;3.20;;;;;;;10.14;93.36;98611.19;5016565;28;20233;-78
2023/12/11 07:30:24;;;;;;;11.80;2.80;;;;;;;9.90;93.60;98615.78;5000398;28;20698;-78
2023/12/11 07:32:51;;;;;;;10.27;2.70;;;;;;;9.98;94.33;98606.78;5006162;28;20206;-78
2023/12/11 07:35:19;;;;;;;9.70;2.40;;;;;;;10.03;94.57;98595.25;5016895;28;20242;-78
2023/12/11 07:37:45;;;;;;;7.13;2.50;;;;;;;9.97;95.01;98608.56;5016341;28;20257;-78
2023/12/11 07:40:12;;;;;;;9.00;2.23;;;;;;;9.50;96.37;98583.72;5016766;28;20292;-79
2023/12/11 07:42:38;;;;;;;12.13;2.83;;;;;;;9.76;96.31;98563.47;5016804;28;20211;-78
2023/12/11 07:45:06;;;;;;;14.67;2.63;;;;;;;9.67;96.86;98564.75;5016360;28;20223;-78
2023/12/11 07:47:32;;;;;;;11.43;2.77;;;;;;;9.86;96.74;98549.09;5017042;28;20243;-78
2023/12/11 07:49:59;;;;;;;8.77;2.27;;;;;;;9.94;96.54;98553.94;5016150;28;20230;-78
2023/12/11 07:52:29;;;;;;;7.77;2.17;;;;;;;10.02;96.02;98561.41;5016379;28;20210;-78
2023/12/11 07:54:55;;;;;;;8.97;2.50;;;;;;;9.94;96.24;98548.75;5016482;28;20207;-78
2023/12/11 07:57:21;;;;;;;6.47;2.13;;;;;;;9.90;96.79;98545.44;5016293;28;20209;-78
2023/12/11 07:59:48;;;;;;;8.03;2.43;;;;;;;9.97;96.91;98534.72;5004534;28;20370;-80
2023/12/11 08:02:15;;;;;;;7.93;2.30;;;;;;;9.93;97.22;98542.69;5001163;28;20202;-78
2023/12/11 08:04:41;;;;;;;14.70;3.47;;;;;;;10.02;97.24;98532.75;5015897;28;20206;-78
2023/12/11 08:07:07;;;;;;;6.13;2.20;;;;;;;9.92;96.88;98548.81;5015164;28;20681;-78
2023/12/11 08:09:38;;;;;;;9.30;2.47;;;;;;;9.72;98.62;98518.47;5015369;28;20231;-77
2023/12/11 08:12:05;;;;;;;9.67;2.43;;;;;;;9.80;98.09;98518.13;5014733;28;20207;-77
2023/12/11 08:14:31;;;;;;;5.70;1.73;;;;;;;9.77;98.00;98518.25;5014996;28;20565;-77
2023/12/11 08:16:58;;;;;;;6.30;2.73;;;;;;;9.60;99.44;98494.75;5014587;28;20245;-77
2023/12/11 08:19:24;;;;;;;6.07;1.97;;;;;;;9.65;99.77;98470.19;5014779;28;20254;-77
2023/12/11 08:21:51;;;;;;;4.63;2.00;;;;;;;9.70;99.48;98486.44;5013850;28;20211;-77
2023/12/11 08:24:18;;;;;;;8.00;1.80;;;;;;;9.73;100.00;98480.22;5014624;28;20207;-77
2023/12/11 08:26:46;;;;;;;5.20;1.83;;;;;;;9.65;100.00;98464.13;5014903;28;20265;-77
2023/12/11 08:29:12;;;;;;;4.93;1.73;;;;;;;9.69;100.00;98465.66;4992854;28;20232;-77
2023/12/11 08:31:39;;;;;;;8.07;2.43;;;;;;;9.74;100.00;98466.28;4994509;28;20254;-77
2023/12/11 08:34:05;;;;;;;4.23;1.97;;;;;;;9.77;100.00;98460.91;5013380;28;20214;-77
2023/12/11 08:36:31;;;;;;;10.90;2.67;;;;;;;9.58;100.00;98447.94;5013538;28;20234;-77
2023/12/11 08:38:58;;;;;;;7.97;2.10;;;;;;;9.71;100.00;98440.38;5014528;28;20677;-77
2023/12/11 08:41:24;;;;;;;9.43;2.77;;;;;;;9.77;100.00;98445.28;5014660;28;20257;-77
2023/12/11 08:43:52;;;;;;;5.20;2.20;;;;;;;9.58;100.00;98444.50;5014771;28;20234;-77
2023/12/11 08:46:18;;;;;;;6.43;2.93;;;;;;;9.62;100.00;98433.03;5014385;28;20253;-77
2023/12/11 08:48:45;;;;;;;6.77;2.17;;;;;;;9.59;100.00;98407.09;5014504;28;20203;-76
2023/12/11 08:51:12;;;;;;;6.03;2.50;;;;;;;9.63;100.00;98419.94;5013604;28;20223;-77
2023/12/11 08:53:38;;;;;;;6.70;2.13;;;;;;;9.70;100.00;98418.69;5014115;28;20280;-77
2023/12/11 08:56:04;;;;;;;9.47;2.57;;;;;;;9.52;100.00;98406.56;5014467;28;20624;-77
2023/12/11 08:58:31;;;;;;;6.97;2.37;;;;;;;9.62;100.00;98399.16;5013274;28;20253;-77
2023/12/11 09:00:59;;;;;;;8.83;2.60;;;;;;;9.56;100.00;98386.44;4994378;28;20231;-77
2023/12/11 09:03:25;;;;;;;9.13;3.00;;;;;;;9.67;100.00;98404.97;5007779;28;20209;-77
2023/12/11 09:05:52;;;;;;;9.33;2.53;;;;;;;9.74;100.00;98407.22;5014414;28;20207;-77
2023/12/11 09:08:18;;;;;;;8.70;2.47;;;;;;;9.53;100.00;98383.06;5014648;28;20203;-77
2023/12/11 09:10:45;;;;;;;6.40;2.70;;;;;;;9.58;100.00;98361.16;5014657;28;20222;-78
2023/12/11 09:13:11;;;;;;;8.67;2.73;;;;;;;9.74;100.00;98368.13;5014312;28;20207;-77
2023/12/11 09:15:38;;;;;;;8.27;2.83;;;;;;;9.70;100.00;98368.38;5014404;28;20647;-77
2023/12/11 09:18:06;;;;;;;7.80;2.30;;;;;;;9.81;100.00;98373.03;5014062;28;20199;-77
2023/12/11 09:20:33;;;;;;;5.60;2.63;;;;;;;9.97;100.00;98383.53;5014209;28;20309;-77
2023/12/11 09:22:59;;;;;;;9.77;3.20;;;;;;;9.98;100.00;98400.88;5013248;28;20202;-77
2023/12/11 09:25:25;;;;;;;7.33;2.60;;;;;;;9.94;100.00;98403.63;5013676;28;20253;-77
2023/12/11 09:27:52;;;;;;;8.23;4.30;;;;;;;10.12;100.00;98414.06;5012982;28;20215;-78
2023/12/11 09:30:18;;;;;;;8.27;3.60;;;;;;;10.07;100.00;98434.31;4998908;28;20656;-77
2023/12/11 09:32:45;;;;;;;11.07;3.63;;;;;;;10.28;99.49;98443.66;5003191;28;20219;-77
2023/12/11 09:35:14;;;;;;;8.23;3.93;;;;;;;10.23;99.23;98466.53;5014879;28;20294;-77
2023/12/11 09:37:41;;;;;;;8.80;3.23;;;;;;;10.34;98.66;98473.84;5014887;28;20206;-78
2023/12/11 09:40:10;;;;;;;9.27;3.07;;;;;;;10.36;98.37;98481.59;5014920;28;20235;-77
2023/12/11 09:42:40;;;;;;;9.07;3.27;;;;;;;10.40;97.91;98494.41;5015021;28;20234;-78
2023/12/11 09:45:08;;;;;;;7.10;3.00;;;;;;;10.51;98.04;98504.31;5014630;28;20669;-78
2023/12/11 09:47:39;;;;;;;7.77;3.03;;;;;;;10.44;96.74;98513.34;5009723;28;20200;-78
2023/12/11 09:50:07;;;;;;;8.30;3.03;;;;;;;10.21;96.13;98537.91;5014034;28;20239;-79
2023/12/11 09:52:39;;;;;;;6.87;3.17;;;;;;;10.43;96.80;98536.00;5015415;28;20206;-78
2023/12/11 09:55:06;;;;;;;9.80;2.80;;;;;;;10.46;96.50;98535.84;5015672;28;20273;-77
2023/12/11 09:57:34;;;;;;;8.90;3.10;;;;;;;10.53;96.16;98545.06;5015455;28;20209;-78
2023/12/11 10:00:00;;;;;;;9.03;3.10;;;;;;;10.25;97.92;98526.44;5002124;28;20219;-78
2023/12/11 10:02:27;;;;;;;11.63;3.70;;;;;;;10.42;97.89;98513.44;5001306;28;20203;-79
2023/12/11 10:05:05;;;;;;;9.70;3.13;;;;;;;10.39;97.53;98520.59;5015818;28;20214;-78
2023/12/11 10:07:32;;;;;;;11.43;3.13;;;;;;;10.46;97.69;98514.13;5015609;28;20209;-78
2023/12/11 10:10:00;;;;;;;6.93;2.80;;;;;;;10.54;97.10;98511.97;5015789;28;20301;-78
2023/12/11 10:12:39;;;;;;;11.33;2.83;;;;;;;10.46;96.64;98522.78;5015635;28;20614;-78
2023/12/11 10:15:07;;;;;;;7.97;3.27;;;;;;;10.44;97.12;98506.38;5015447;28;20210;-79
2023/12/11 10:17:33;;;;;;;6.93;2.47;;;;;;;10.39;98.18;98490.13;5016124;28;20207;-79
2023/12/11 10:19:59;;;;;;;4.33;1.67;;;;;;;10.01;100.00;98461.53;5015622;28;20219;-78
2023/12/11 10:22:27;;;;;;;6.10;2.17;;;;;;;10.27;99.91;98451.59;5015013;28;20233;-79
2023/12/11 10:24:54;;;;;;;4.33;1.70;;;;;;;10.27;98.72;98457.63;5016029;28;20203;-78
2023/12/11 10:27:23;;;;;;;5.67;2.23;;;;;;;10.31;97.98;98466.19;5000211;28;20670;-79
2023/12/11 10:30:08;;;;;;;7.10;1.80;;;;;;;10.25;97.44;98466.47;5004528;28;20215;-79
2023/12/11 10:32:34;;;;;;;3.97;1.93;;;;;;;10.25;97.82;98464.69;4998564;28;20207;-79
2023/12/11 10:35:01;;;;;;;5.07;1.43;;;;;;;10.29;97.39;98461.00;4999619;28;20552;-79
2023/12/11 10:37:30;;;;;;;4.73;2.07;;;;;;;10.25;97.78;98463.84;4993835;28;20211;-79
2023/12/11 10:39:57;;;;;;;2.63;1.10;;;;;;;10.21;98.19;98455.34;5000612;28;20258;-79
2023/12/11 10:42:26;;;;;;;6.83;1.73;;;;;;;10.31;97.88;98442.72;5002774;28;20214;-79
2023/12/11 10:44:55;;;;;;;4.73;1.10;;;;;;;10.37;98.05;98446.78;5000248;28;20221;-79
2023/12/11 10:47:21;;;;;;;3.03;1.20;;;;;;;10.37;98.48;98437.19;4998633;28;20206;-79
2023/12/11 10:49:49;;;;;;;2.67;1.50;;;;;;;10.39;98.89;98440.56;5000200;28;20258;-79
2023/12/11 10:52:16;;;;;;;2.27;1.03;;;;;;;10.36;97.83;98447.69;5002000;28;20393;-79
2023/12/11 10:54:42;;;;;;;3.77;1.70;;;;;;;10.21;99.73;98424.06;5000490;28;20692;-79
2023/12/11 10:57:13;;;;;;;3.47;1.03;;;;;;;10.09;99.77;98409.88;5001747;28;20579;-79
2023/12/11 10:59:41;;;;;;;2.63;1.13;;;;;;;10.04;99.69;98419.66;4995107;28;20604;-79
2023/12/11 11:02:09;;;;;;;2.07;1.50;;;;;;;10.28;99.68;98398.50;4997094;28;20577;-79
2023/12/11 11:04:40;;;;;;;2.47;1.30;;;;;;;10.15;100.00;98395.69;5000255;28;20203;-79
2023/12/11 11:07:11;;;;;;;3.13;1.63;;;;;;;10.27;100.00;98395.06;5000118;28;20207;-78
2023/12/11 11:09:49;;;;;;;4.50;1.53;;;;;;;10.38;99.55;98407.56;4997632;28;20259;-78
2023/12/11 11:12:28;;;;;;;2.77;1.47;;;;;;;10.25;100.00;98412.53;4998463;28;20204;-78
2023/12/11 11:14:55;;;;;;;2.20;1.57;;;;;;;10.21;100.00;98394.50;4997915;28;20203;-78
2023/12/11 11:17:22;;;;;;;2.63;1.20;;;;;;;10.32;100.00;98390.47;5000151;28;20669;-78
2023/12/11 11:20:12;;;;;;;4.27;1.80;;;;;;;10.37;100.00;98386.81;4998260;28;20227;-78
2023/12/11 11:22:39;;;;;;;2.13;1.27;;;;;;;10.39;100.00;98403.22;4997623;28;20211;-77
2023/12/11 11:25:30;;;;;;;2.00;1.20;;;;;;;9.92;100.00;98407.25;4997886;28;20670;-78
2023/12/11 11:27:56;;;;;;;2.40;1.40;;;;;;;10.11;100.00;98357.66;4992661;28;20557;-77